Latest Weather Observations for Morawa Airport

IDW60801

Issued at 5:34 pm WST Tuesday 17 October 2017 (issued every 30 minutes, with the page automatically refreshed every 10 minutes)

About weather observations | Map of weather stations | Latest weather observations for WA | Other Formats
Station Details ID: 008296 Name: MORAWA AIRPORT Lat: -29.20 Lon: 116.02 Height: 271.4 m
Data from the previous 72 hours. | See also: Recent months at Morawa Airport
Date/Time
WST
Temp
°C
App
Temp
°C
Dew
Point
°C
Rel
Hum
%
Delta-T
°C
Wind Press
QNH
hPa
Press
MSL
hPa
Rain since
9am
mm
Dir  Spd
km/h
Gust
km/h
Spd
kts
Gust
kts
17/05:30pm 17.9 11.5 5.2 43 6.2 W 28 39 15 21 1013.6 1012.7 0.0
17/05:00pm 19.2 12.1 5.6 41 6.8 W 32 46 17 25 1013.0 1012.2 0.0
17/04:42pm 19.6 13.0 6.0 41 6.8 W 30 48 16 26 1012.7 1011.9 0.0
17/04:30pm 20.0 14.2 6.4 41 6.9 W 26 43 14 23 1012.6 1011.8 0.0
17/04:00pm 20.2 14.2 6.9 42 6.8 W 28 41 15 22 1012.3 1011.5 0.0
17/03:30pm 21.0 14.8 6.2 38 7.5 W 28 37 15 20 1012.1 1011.2 0.0
17/03:00pm 22.0 16.3 6.7 37 7.9 W 26 44 14 24 1012.0 1011.1 0.0
17/02:30pm 21.9 16.1 8.1 41 7.3 W 28 39 15 21 1012.0 1011.1 0.0
17/02:00pm 22.0 17.1 8.5 42 7.2 W 24 35 13 19 1012.0 1011.1 0.0
17/01:30pm 21.8 17.4 9.0 44 6.9 W 22 35 12 19 1012.2 1011.3 0.0
17/01:00pm 21.4 16.3 9.3 46 6.5 W 26 41 14 22 1012.6 1011.8 0.0
17/12:30pm 20.0 15.8 9.9 52 5.5 W 22 33 12 18 1013.0 1012.2 0.0
17/12:00pm 19.8 15.3 10.2 54 5.2 W 24 33 13 18 1013.1 1012.3 0.0
17/11:30am 19.2 15.4 11.0 59 4.5 W 22 35 12 19 1013.3 1012.5 0.0
17/11:00am 19.6 15.8 9.8 53 5.3 WNW 20 33 11 18 1013.3 1012.5 0.0
17/10:30am 18.8 14.9 10.9 60 4.3 NW 22 32 12 17 1013.6 1012.7 0.0
17/10:00am 18.4 14.7 10.3 59 4.4 W 20 30 11 16 1013.7 1012.8 0.0
17/09:30am 17.2 14.5 11.7 70 3.0 W 17 26 9 14 1013.6 1012.7 0.0
17/09:00am 14.5 12.3 14.3 99 0.1 W 19 26 10 14 1013.7 1012.8 1.2
17/08:30am 16.3 14.6 12.3 77 2.2 W 13 17 7 9 1013.3 1012.5 1.2
17/08:00am 14.7 13.6 14.2 97 0.3 WNW 13 20 7 11 1013.3 1012.5 1.2
17/07:30am 14.3 13.4 13.7 96 0.3 WNW 11 17 6 9 1012.9 1012.1 1.2
17/07:00am 13.5 12.1 13.5 100 0.0 NW 13 19 7 10 1012.6 1011.8 1.2
17/06:30am 12.9 12.1 12.9 100 0.0 NW 9 17 5 9 1012.2 1011.3 1.2
17/06:00am 11.7 10.9 11.7 100 0.0 NW 7 11 4 6 1011.9 1011.0 1.2
17/05:30am 11.5 10.6 11.5 100 0.0 NNW 7 11 4 6 1011.7 1010.8 1.2
17/05:00am 11.9 10.8 11.9 100 0.0 NNW 9 15 5 8 1011.5 1010.6 1.2
17/04:30am 12.2 11.2 12.2 100 0.0 NW 9 13 5 7 1011.4 1010.5 1.2
17/04:00am 11.7 11.9 11.7 100 0.0 NW 2 6 1 3 1011.5 1010.6 1.2
17/03:30am 11.5 10.8 11.5 100 0.0 WNW 6 6 3 3 1011.3 1010.4 1.2
17/03:00am 11.5 11.2 11.5 100 0.0 NW 4 7 2 4 1011.3 1010.4 1.2
17/02:30am 11.8 11.2 11.8 100 0.0 NW 6 9 3 5 1011.5 1010.6 1.2
17/02:00am 12.1 11.4 12.1 100 0.0 NW 7 11 4 6 1011.5 1010.6 1.2
17/01:30am 12.2 11.2 12.2 100 0.0 NW 9 13 5 7 1011.6 1010.7 1.2
17/01:00am 12.3 11.3 12.3 100 0.0 WNW 9 15 5 8 1011.8 1010.9 1.2
17/12:30am 12.1 10.7 12.1 100 0.0 WNW 11 15 6 8 1011.8 1010.9 1.2
17/12:00am 12.4 9.4 12.4 100 0.0 WNW 20 33 11 18 1012.1 1011.2 1.0
 
Date/Time
WST
Temp
°C
App
Temp
°C
Dew
Point
°C
Rel
Hum
%
Delta-T
°C
Wind Press
QNH
hPa
Press
MSL
hPa
Rain since
9am
mm
Dir  Spd
km/h
Gust
km/h
Spd
kts
Gust
kts
16/11:30pm 12.7 11.0 11.3 91 0.7 NW 11 19 6 10 1012.1 1011.2 1.0
16/11:00pm 12.8 11.2 11.7 93 0.6 NNW 11 19 6 10 1012.2 1011.3 1.0
16/10:30pm 12.7 11.3 12.1 96 0.3 NW 11 15 6 8 1012.2 1011.3 1.0
16/10:00pm 12.9 11.5 12.1 95 0.4 NW 11 17 6 9 1012.2 1011.3 1.0
16/09:30pm 13.1 10.3 12.5 96 0.3 WNW 19 28 10 15 1012.4 1011.6 1.0
16/09:00pm 13.5 10.7 11.2 86 1.2 NW 17 26 9 14 1012.3 1011.5 0.8
16/08:30pm 13.8 10.0 9.8 77 2.1 NW 20 33 11 18 1012.2 1011.3 0.8
16/08:00pm 14.7 9.1 8.9 68 3.0 WNW 28 46 15 25 1011.9 1011.0 0.8
16/07:56pm 14.9 9.3 8.8 67 3.1 WNW 28 46 15 25 1011.8 1010.9 0.8
16/07:30pm 14.4 9.6 9.0 70 2.8 WNW 24 35 13 19 1011.6 1010.7 0.8
16/07:08pm 15.9 10.1 7.9 59 4.1 W 28 54 15 29 1011.3 1010.4 0.8
16/07:00pm 15.9 11.2 7.7 58 4.2 W 22 33 12 18 1011.0 1010.1 0.8
16/06:30pm 15.8 10.6 7.3 57 4.3 WNW 24 33 13 18 1010.6 1009.7 0.8
16/06:00pm 17.2 10.9 5.8 47 5.6 WNW 28 43 15 23 1010.2 1009.3 0.8
16/05:30pm 17.2 9.7 6.4 49 5.4 WNW 35 46 19 25 1009.8 1008.9 0.8
16/05:01pm 19.1 11.9 5.2 40 6.9 WNW 32 50 17 27 1009.3 1008.5 0.8
16/05:00pm 19.0 11.6 5.1 40 6.9 WNW 33 50 18 27 1009.2 1008.4 0.8
16/04:38pm 18.7 11.3 5.2 41 6.6 WNW 33 54 18 29 1009.1 1008.3 0.8
16/04:30pm 19.4 12.1 5.5 40 6.9 WNW 33 44 18 24 1008.9 1008.0 0.8
16/04:13pm 19.1 10.9 4.8 39 7.0 WNW 37 56 20 30 1008.6 1007.7 0.8
16/04:00pm 19.5 10.7 3.6 35 7.6 WNW 39 57 21 31 1008.5 1007.6 0.8
16/03:45pm 19.8 11.3 5.1 38 7.3 WNW 39 57 21 31 1008.4 1007.5 0.8
16/03:30pm 19.6 11.2 5.6 40 7.0 WNW 39 54 21 29 1008.3 1007.4 0.8
16/03:01pm 20.6 11.9 5.8 38 7.5 WNW 41 59 22 32 1008.2 1007.3 0.8
16/03:00pm 20.4 11.2 5.6 38 7.4 W 43 59 23 32 1008.2 1007.3 0.8
16/02:30pm 20.9 12.5 5.7 37 7.7 WNW 39 57 21 31 1008.1 1007.2 0.8
16/02:00pm 20.5 11.7 5.7 38 7.5 WNW 41 59 22 32 1008.0 1007.1 0.8
16/01:30pm 20.8 13.2 7.4 42 7.0 WNW 37 57 20 31 1008.0 1007.1 0.8
16/01:29pm 21.0 13.4 7.6 42 7.0 WNW 37 57 20 31 1007.9 1007.0 0.8
16/01:00pm 20.4 13.8 8.7 47 6.2 WNW 33 50 18 27 1008.0 1007.1 0.8
16/12:31pm 20.4 13.6 10.5 53 5.4 WNW 37 57 20 31 1008.1 1007.2 0.8
16/12:30pm 19.8 12.4 10.0 53 5.3 WNW 39 57 21 31 1008.1 1007.2 0.8
16/12:17pm 19.3 13.1 10.0 55 5.0 W 33 54 18 29 1008.1 1007.2 0.8
16/12:00pm 18.6 11.7 10.2 58 4.6 WNW 37 54 20 29 1008.2 1007.3 0.8
16/11:31am 17.6 13.0 12.3 71 3.0 WNW 28 48 15 26 1008.5 1007.6 0.8
16/11:30am 17.3 12.7 12.2 72 2.8 WNW 28 43 15 23 1008.5 1007.6 0.8
16/11:00am 17.2 12.0 13.5 79 2.1 WNW 33 54 18 29 1008.4 1007.5 0.8
16/10:33am 16.3 12.8 15.5 95 0.5 W 28 50 15 27 1008.5 1007.6 0.8
16/10:30am 16.6 13.1 15.5 93 0.6 W 28 39 15 21 1008.3 1007.4 0.8
16/10:02am 16.0 11.9 16.0 100 0.0 WNW 32 57 17 31 1008.4 1007.5 0.6
16/10:00am 16.2 12.2 16.2 100 0.0 WNW 32 44 17 24 1008.4 1007.5 0.6
16/09:30am 16.8 13.4 16.8 100 0.0 WNW 30 43 16 23 1007.9 1007.0 0.2
16/09:12am 17.0 13.6 16.8 99 0.1 NW 30 48 16 26 1007.8 1006.9 0.0
16/09:00am 18.1 14.5 16.3 89 1.1 NW 30 41 16 22 1007.4 1006.5 0.0
16/08:30am 17.3 13.5 15.8 91 0.9 NW 30 44 16 24 1007.4 1006.5 0.0
16/08:00am 18.9 13.7 13.5 71 3.1 NW 33 50 18 27 1006.8 1005.9 0.0
16/07:30am 18.4 14.4 13.1 71 3.0 NW 26 41 14 22 1006.6 1005.7 0.0
16/07:00am 18.0 14.4 13.1 73 2.8 NNW 24 37 13 20 1006.6 1005.7 0.0
16/06:30am 17.5 13.6 13.4 77 2.3 NNW 26 35 14 19 1006.6 1005.7 0.0
16/06:00am 17.3 13.9 13.6 79 2.1 NNW 24 37 13 20 1006.6 1005.7 0.0
16/05:30am 17.0 13.9 13.3 79 2.1 NNW 22 32 12 17 1006.2 1005.3 0.0
16/05:00am 16.6 14.0 13.3 81 1.9 NNW 19 28 10 15 1006.1 1005.2 0.0
16/04:30am 16.4 14.3 13.5 83 1.7 NNW 17 24 9 13 1006.2 1005.3 0.0
16/04:00am 16.3 14.7 13.8 85 1.4 NNW 15 20 8 11 1006.2 1005.3 0.0
16/03:30am 16.4 14.7 13.7 84 1.5 NNW 15 22 8 12 1006.1 1005.2 0.0
16/03:00am 16.7 15.0 13.6 82 1.8 NW 15 22 8 12 1006.4 1005.5 0.0
16/02:30am 16.6 14.9 13.5 82 1.8 NNW 15 20 8 11 1006.3 1005.4 0.0
16/02:00am 16.6 15.7 13.7 83 1.7 NW 11 17 6 9 1006.6 1005.7 0.0
16/01:30am 16.6 16.0 13.5 82 1.8 NW 9 11 5 6 1007.0 1006.1 0.0
16/01:00am 16.7 16.5 13.6 82 1.8 NW 7 11 4 6 1007.1 1006.2 0.0
16/12:30am 16.7 16.1 13.4 81 1.9 WNW 9 13 5 7 1007.6 1006.7 0.0
16/12:00am 16.8 16.1 13.3 80 2.0 WNW 9 13 5 7 1007.9 1007.0 0.0
 
Date/Time
WST
Temp
°C
App
Temp
°C
Dew
Point
°C
Rel
Hum
%
Delta-T
°C
Wind Press
QNH
hPa
Press
MSL
hPa
Rain since
9am
mm
Dir  Spd
km/h
Gust
km/h
Spd
kts
Gust
kts
15/11:30pm 17.0 16.3 13.3 79 2.1 W 9 13 5 7 1008.1 1007.2 0.0
15/11:00pm 17.0 15.2 13.3 79 2.1 W 15 24 8 13 1008.7 1007.8 0.0
15/10:30pm 16.9 15.5 13.4 80 2.0 W 13 19 7 10 1008.7 1007.8 0.0
15/10:00pm 16.8 15.4 13.3 80 2.0 W 13 19 7 10 1009.0 1008.2 0.0
15/09:30pm 16.6 15.2 13.3 81 1.9 WSW 13 20 7 11 1009.2 1008.4 0.0
15/09:00pm 16.7 14.2 13.4 81 1.9 W 19 26 10 14 1009.3 1008.5 0.0
15/08:30pm 17.4 14.8 13.7 79 2.1 W 20 32 11 17 1009.0 1008.2 0.0
15/08:00pm 18.5 15.8 13.6 73 2.8 W 20 30 11 16 1008.7 1007.8 0.0
15/07:30pm 20.4 18.2 13.4 64 4.1 W 17 24 9 13 1008.1 1007.2 0.0
15/07:00pm 21.9 19.1 13.3 58 5.0 WSW 20 28 11 15 1007.8 1006.9 0.0
15/06:30pm 23.9 20.4 13.4 51 6.2 W 24 41 13 22 1007.2 1006.3 0.0
15/06:00pm 25.8 22.3 13.3 46 7.4 WSW 24 35 13 19 1006.6 1005.7 0.0
15/05:30pm 27.6 23.4 12.4 39 8.9 W 26 35 14 19 1006.2 1005.3 0.0
15/05:00pm 29.8 25.8 11.8 33 10.6 WSW 24 35 13 19 1006.0 1005.1 0.0
15/04:30pm 33.2 29.1 8.6 22 14.0 W 20 32 11 17 1005.4 1004.5 0.0
15/04:00pm 33.9 28.9 3.7 15 16.0 NNW 19 26 10 14 1005.5 1004.6 0.0
15/03:30pm 33.4 28.3 3.3 15 15.7 NW 19 32 10 17 1006.0 1005.1 0.0
15/03:00pm 33.3 27.8 4.1 16 15.5 NW 22 33 12 18 1006.2 1005.3 0.0
15/02:30pm 33.5 28.6 4.2 16 15.5 NNW 19 30 10 16 1006.6 1005.7 0.0
15/02:00pm 33.5 28.6 5.1 17 15.3 NW 20 32 11 17 1006.9 1006.0 0.0
15/01:30pm 33.5 30.1 7.5 20 14.5 N 15 24 8 13 1007.2 1006.3 0.0
15/01:00pm 32.1 28.0 7.7 22 13.6 N 19 33 10 18 1007.7 1006.8 0.0
15/12:30pm 32.5 28.8 8.0 22 13.7 NNW 17 30 9 16 1008.0 1007.1 0.0
15/12:00pm 31.1 27.6 8.8 25 12.6 N 17 30 9 16 1008.4 1007.5 0.0
15/11:30am 29.9 27.2 10.5 30 11.2 NE 15 24 8 13 1009.1 1008.3 0.0
15/11:00am 28.2 25.9 11.7 36 9.6 NE 15 20 8 11 1009.5 1008.7 0.0
15/10:30am 27.2 25.9 12.4 40 8.7 ENE 11 19 6 10 1010.2 1009.3 0.0
15/10:00am 24.6 24.1 13.8 51 6.4 NE 9 17 5 9 1010.7 1009.8 0.0
15/09:30am 22.5 23.2 14.4 60 4.8 SE 4 7 2 4 1011.0 1010.1 0.0
15/09:00am 20.4 20.7 14.5 69 3.5 ESE 6 11 3 6 1011.2 1010.3 0.0
15/08:30am 18.6 19.0 15.3 81 2.0 SSE 7 13 4 7 1011.3 1010.4 0.0
15/08:00am 16.5 16.6 15.5 94 0.6 SSE 9 17 5 9 1011.3 1010.4 0.0
15/07:30am 15.6 15.7 15.6 100 0.0 SSE 9 13 5 7 1011.5 1010.6 0.0
15/07:00am 15.2 15.2 15.2 100 0.0 S 9 15 5 8 1011.3 1010.4 0.0
15/06:30am 15.0 14.9 15.0 100 0.0 SSW 9 13 5 7 1011.4 1010.5 0.0
15/06:00am 14.9 14.4 14.9 100 0.0 SSW 11 15 6 8 1011.4 1010.5 0.0
15/05:30am 14.9 14.8 14.9 100 0.0 SSW 9 11 5 6 1011.1 1010.2 0.0
15/05:00am 14.7 14.5 14.7 100 0.0 SSW 9 11 5 6 1010.9 1010.0 0.0
15/04:30am 15.0 15.3 15.0 100 0.0 SW 7 11 4 6 1011.0 1010.1 0.0
15/04:00am 14.8 14.6 14.8 100 0.0 SW 9 11 5 6 1010.9 1010.0 0.0
15/03:30am 14.6 14.9 14.6 100 0.0 SSW 6 9 3 5 1010.8 1009.9 0.0
15/03:00am 15.0 15.5 15.0 100 0.0 SSW 6 7 3 4 1010.7 1009.8 0.0
15/02:30am 15.3 15.7 15.3 100 0.0 SW 7 9 4 5 1010.8 1009.9 0.0
15/02:00am 15.8 16.0 15.8 100 0.0 SW 9 13 5 7 1010.9 1010.0 0.0
15/01:30am 16.1 16.8 16.1 100 0.0 SW 7 9 4 5 1011.2 1010.3 0.0
15/01:00am 16.3 17.1 16.3 100 0.0 SW 7 9 4 5 1011.4 1010.5 0.0
15/12:30am 16.6 17.3 16.1 97 0.3 SSW 7 9 4 5 1011.6 1010.7 0.0
15/12:00am 17.1 17.4 16.0 93 0.7 SSW 9 11 5 6 1011.8 1010.9 0.0
 
Date/Time
WST
Temp
°C
App
Temp
°C
Dew
Point
°C
Rel
Hum
%
Delta-T
°C
Wind Press
QNH
hPa
Press
MSL
hPa
Rain since
9am
mm
Dir  Spd
km/h
Gust
km/h
Spd
kts
Gust
kts
14/11:30pm 17.4 17.5 15.6 89 1.1 SSW 9 13 5 7 1011.8 1010.9 0.0
14/11:00pm 17.9 18.0 15.5 86 1.4 SSW 9 15 5 8 1012.0 1011.1 0.0
14/10:30pm 18.5 18.5 15.2 81 2.0 SSW 9 13 5 7 1012.4 1011.6 0.0
14/10:00pm 19.0 18.9 14.9 77 2.4 SSW 9 13 5 7 1012.6 1011.8 0.0
14/09:30pm 19.6 19.3 14.4 72 3.1 SSW 9 13 5 7 1012.7 1011.9 0.0
14/09:00pm 20.3 19.3 14.7 70 3.3 SSW 13 20 7 11 1012.4 1011.6 0.0
14/08:30pm 20.9 18.7 14.5 67 3.8 SSW 19 28 10 15 1012.3 1011.5 0.0
14/08:00pm 21.5 19.1 13.7 61 4.6 SW 19 28 10 15 1012.3 1011.5 0.0
14/07:30pm 22.7 19.9 12.6 53 5.8 SW 19 32 10 17 1012.3 1011.5 0.0
14/07:00pm 23.8 20.9 12.8 50 6.4 SW 20 32 11 17 1012.0 1011.1 0.0
14/06:30pm 24.8 21.2 13.0 47 6.9 SW 24 35 13 19 1011.4 1010.5 0.0
14/06:00pm 27.6 24.2 11.2 36 9.5 SW 20 30 11 16 1010.8 1009.9 0.0

Other Formats:

Comma delimited format used in spreadsheet applications
http://www.bom.gov.au/fwo/IDW60801/IDW60801.94417.axf

JavaScript Object Notation format (JSON) in row-major order
http://www.bom.gov.au/fwo/IDW60801/IDW60801.94417.json